Time;durP1;ratioP1;P1;durP2;ratioP2;P2;SDS_P1;SDS_P2;PMS_P1;PMS_P2;Temp;Humidity;BMP_temperature;BMP_pressure;BME280_temperature;BME280_humidity;BME280_pressure;Samples;Min_cycle;Max_cycle;Signal;HPM_P1;HPM_P2
2024/02/16 00:00:20;;;;;;;8.57;4.25;;;;;;;11.31;78.66;100520.31;5056213;28;20120;-79
2024/02/16 00:02:46;;;;;;;9.15;4.43;;;;;;;11.35;78.96;100520.88;5045573;28;20474;-80
2024/02/16 00:05:14;;;;;;;6.63;3.55;;;;;;;11.34;78.75;100516.53;5055123;28;20077;-79
2024/02/16 00:07:41;;;;;;;8.88;4.28;;;;;;;11.39;78.29;100523.09;5054501;28;20093;-78
2024/02/16 00:10:09;;;;;;;6.35;4.10;;;;;;;11.37;78.46;100521.56;5057854;28;20136;-80
2024/02/16 00:12:36;;;;;;;11.13;4.78;;;;;;;11.39;77.91;100515.16;5055066;28;20125;-80
2024/02/16 00:15:04;;;;;;;8.23;3.90;;;;;;;11.39;78.24;100516.97;5053774;28;20049;-80
2024/02/16 00:17:30;;;;;;;7.55;4.20;;;;;;;11.32;78.94;100518.50;5052007;28;20068;-80
2024/02/16 00:19:57;;;;;;;7.70;4.40;;;;;;;11.30;79.02;100523.13;5061146;28;20048;-79
2024/02/16 00:22:25;;;;;;;4.85;3.70;;;;;;;11.25;79.12;100522.69;5067638;28;20053;-80
2024/02/16 00:24:52;;;;;;;9.93;4.72;;;;;;;11.18;79.75;100527.72;5068376;28;20043;-79
2024/02/16 00:27:19;;;;;;;8.07;4.28;;;;;;;11.25;78.92;100526.19;5065402;28;20056;-79
2024/02/16 00:29:46;;;;;;;8.18;4.32;;;;;;;11.27;79.17;100529.53;5060344;28;20072;-80
2024/02/16 00:32:13;;;;;;;6.80;4.25;;;;;;;11.31;78.42;100522.13;5052363;28;20053;-80
2024/02/16 00:34:41;;;;;;;8.30;4.35;;;;;;;11.30;78.60;100523.97;5059250;28;20136;-79
2024/02/16 00:37:09;;;;;;;7.53;4.32;;;;;;;11.32;78.74;100529.09;5057974;28;20045;-79
2024/02/16 00:39:37;;;;;;;6.32;4.10;;;;;;;11.32;78.60;100529.09;5058947;28;20084;-80
2024/02/16 00:42:06;;;;;;;7.53;4.28;;;;;;;11.38;78.30;100531.19;5058664;28;20120;-79
2024/02/16 00:44:33;;;;;;;8.73;4.35;;;;;;;11.44;77.91;100527.16;5057084;28;20076;-80
2024/02/16 00:46:59;;;;;;;5.93;4.05;;;;;;;11.45;77.96;100529.63;5057769;28;20129;-78
2024/02/16 00:49:26;;;;;;;7.32;4.38;;;;;;;11.47;78.19;100538.28;5057036;28;20076;-79
2024/02/16 00:51:53;;;;;;;7.93;5.07;;;;;;;11.48;78.02;100528.53;5059762;28;20139;-78
2024/02/16 00:54:20;;;;;;;8.32;4.72;;;;;;;11.46;78.18;100533.13;5060874;28;20072;-81
2024/02/16 00:56:48;;;;;;;10.20;4.57;;;;;;;11.46;77.96;100530.47;5055882;28;20600;-79
2024/02/16 00:59:15;;;;;;;8.18;4.13;;;;;;;11.47;77.86;100525.03;5058242;28;20080;-80
2024/02/16 01:01:41;;;;;;;6.50;4.43;;;;;;;11.48;78.08;100531.19;5050808;28;20081;-81
2024/02/16 01:04:08;;;;;;;10.35;5.93;;;;;;;11.49;78.04;100525.72;5058846;28;20052;-80
2024/02/16 01:06:34;;;;;;;6.40;3.95;;;;;;;11.51;77.76;100534.34;5058859;28;20060;-80
2024/02/16 01:09:01;;;;;;;8.45;4.38;;;;;;;11.51;77.78;100521.09;5057611;28;20095;-80
2024/02/16 01:11:28;;;;;;;8.05;4.93;;;;;;;11.55;77.64;100525.16;5057832;28;20153;-80
2024/02/16 01:13:56;;;;;;;6.70;4.30;;;;;;;11.56;77.66;100516.25;5058507;28;20045;-79
2024/02/16 01:16:23;;;;;;;7.63;4.30;;;;;;;11.58;77.46;100519.56;5058146;28;20569;-80
2024/02/16 01:18:50;;;;;;;6.18;4.15;;;;;;;11.60;77.54;100524.72;5058273;28;20053;-79
2024/02/16 01:21:17;;;;;;;7.95;4.13;;;;;;;11.59;77.29;100513.28;5058101;28;20072;-80
2024/02/16 01:23:44;;;;;;;6.15;4.22;;;;;;;11.60;77.20;100509.66;5060967;28;20371;-78
2024/02/16 01:26:11;;;;;;;9.02;4.10;;;;;;;11.62;76.82;100509.53;5059817;28;20045;-82
2024/02/16 01:28:37;;;;;;;7.32;4.10;;;;;;;11.62;76.90;100505.06;5057142;28;20121;-80
2024/02/16 01:31:05;;;;;;;7.13;4.05;;;;;;;11.61;76.89;100506.03;5057602;28;20451;-79
2024/02/16 01:33:34;;;;;;;6.35;4.10;;;;;;;11.59;77.00;100500.03;5056999;28;20057;-79
2024/02/16 01:36:01;;;;;;;5.78;3.70;;;;;;;11.55;77.47;100503.94;5057136;28;20110;-79
2024/02/16 01:38:36;;;;;;;8.45;5.30;;;;;;;11.53;77.49;100499.78;5130771;23;20099;-79
2024/02/16 01:41:03;;;;;;;7.60;4.20;;;;;;;11.51;77.75;100494.59;5060013;28;20059;-80
2024/02/16 01:43:41;;;;;;;8.57;4.53;;;;;;;11.50;77.89;100503.53;5067761;28;20037;-79
2024/02/16 01:46:28;;;;;;;6.22;4.00;;;;;;;11.51;77.64;100501.72;5060277;28;20048;-80
2024/02/16 01:49:13;;;;;;;7.57;3.85;;;;;;;11.52;77.44;100498.09;5034441;28;20050;-78
2024/02/16 01:51:50;;;;;;;6.15;3.85;;;;;;;11.56;77.27;100499.47;5024665;28;20076;-80
2024/02/16 01:57:24;;;;;;;8.45;4.20;;;;;;;11.54;77.19;100507.59;5043823;28;20052;-79
2024/02/16 02:00:05;;;;;;;8.25;4.20;;;;;;;11.52;77.31;100500.75;5058583;28;20052;-80
2024/02/16 02:02:35;;;;;;;7.07;4.38;;;;;;;11.54;77.56;100507.59;5037780;28;20053;-80
2024/02/16 02:05:07;;;;;;;9.27;4.22;;;;;;;11.53;77.22;100505.91;5029987;28;20547;-79
2024/02/16 02:07:37;;;;;;;7.00;4.07;;;;;;;11.56;77.30;100503.00;5038809;28;20061;-80
2024/02/16 02:10:08;;;;;;;8.55;4.20;;;;;;;11.56;77.33;100503.00;5047353;28;20046;-79
2024/02/16 02:12:40;;;;;;;7.30;4.35;;;;;;;11.54;77.56;100502.28;5038362;28;20041;-79
2024/02/16 02:15:13;;;;;;;9.02;4.05;;;;;;;11.55;77.54;100501.28;5041032;28;20387;-80
2024/02/16 02:17:45;;;;;;;9.05;4.18;;;;;;;11.54;77.41;100510.22;5040680;28;20089;-81
2024/02/16 02:20:15;;;;;;;7.10;4.30;;;;;;;11.52;77.23;100508.69;5050615;28;20087;-80
2024/02/16 02:22:46;;;;;;;6.95;4.30;;;;;;;11.54;77.74;100507.59;5041107;28;20045;-80
2024/02/16 02:25:21;;;;;;;8.63;4.10;;;;;;;11.49;77.74;100509.81;5043316;28;20447;-78
2024/02/16 02:27:48;;;;;;;6.07;3.97;;;;;;;11.43;78.50;100499.81;5048134;28;20057;-77
2024/02/16 02:30:18;;;;;;;10.00;4.15;;;;;;;11.45;78.12;100494.34;5040231;28;20070;-79
2024/02/16 02:32:46;;;;;;;7.35;3.90;;;;;;;11.42;78.68;100497.28;5043918;28;20155;-81
2024/02/16 02:35:14;;;;;;;7.53;3.83;;;;;;;11.40;78.86;100500.09;5056767;28;20499;-80
2024/02/16 02:37:41;;;;;;;5.85;3.97;;;;;;;11.41;78.47;100491.16;5044623;28;20049;-79
2024/02/16 02:40:10;;;;;;;10.20;4.00;;;;;;;11.40;78.70;100481.53;5052057;28;20151;-78
2024/02/16 02:42:39;;;;;;;5.20;4.15;;;;;;;11.39;78.83;100487.81;5053686;28;20120;-78
2024/02/16 02:45:07;;;;;;;5.90;4.20;;;;;;;11.40;79.07;100486.84;5047253;28;20080;-78
2024/02/16 02:47:34;;;;;;;5.28;4.20;;;;;;;11.40;78.58;100489.50;5041793;28;20050;-78
2024/02/16 02:50:00;;;;;;;8.75;4.30;;;;;;;11.42;78.79;100471.63;5046272;28;20049;-79
2024/02/16 02:52:30;;;;;;;6.22;4.30;;;;;;;11.48;78.49;100486.97;5039227;28;20111;-80
2024/02/16 02:54:57;;;;;;;7.90;4.00;;;;;;;11.47;78.80;100482.63;5045232;28;20045;-78
2024/02/16 02:57:26;;;;;;;7.32;4.30;;;;;;;11.47;78.89;100474.66;5052812;28;20069;-79
2024/02/16 03:00:01;;;;;;;6.88;4.30;;;;;;;11.43;79.28;100491.00;5036406;28;20050;-79
2024/02/16 03:02:27;;;;;;;6.15;4.03;;;;;;;11.43;79.21;100481.25;5043139;28;20049;-78
2024/02/16 03:04:57;;;;;;;6.60;4.32;;;;;;;11.43;80.23;100477.75;5047325;28;20053;-79
2024/02/16 03:07:27;;;;;;;6.30;4.18;;;;;;;11.42;80.70;100474.28;5050177;28;20041;-80
2024/02/16 03:10:00;;;;;;;7.28;4.15;;;;;;;11.33;81.32;100473.31;5061875;28;20052;-79
2024/02/16 03:12:43;;;;;;;;;;;;;;;;;;;;;
2024/02/16 03:15:10;;;;;;;7.82;4.47;;;;;;;11.31;81.98;100461.19;5041454;28;20139;-80
2024/02/16 03:17:37;;;;;;;8.63;4.95;;;;;;;11.34;81.92;100466.19;5040869;28;20053;-80
2024/02/16 03:20:07;;;;;;;7.43;4.43;;;;;;;11.34;82.08;100464.41;5049127;28;20075;-80
2024/02/16 03:22:34;;;;;;;8.10;4.63;;;;;;;11.39;81.66;100462.16;5052497;28;20060;-80
2024/02/16 03:25:05;;;;;;;5.90;4.75;;;;;;;11.40;81.51;100460.34;5042877;28;20057;-81
2024/02/16 03:27:33;;;;;;;6.80;4.82;;;;;;;11.39;81.63;100461.31;5059433;28;20071;-81
2024/02/16 03:30:02;;;;;;;10.25;4.80;;;;;;;11.38;81.87;100463.16;5051036;28;20084;-80
2024/02/16 03:32:29;;;;;;;9.40;4.10;;;;;;;11.38;82.01;100454.34;5049834;28;20085;-80
2024/02/16 03:34:58;;;;;;;9.07;4.63;;;;;;;11.37;81.95;100458.81;5042741;28;20092;-80
2024/02/16 03:37:25;;;;;;;8.55;4.43;;;;;;;11.35;82.26;100455.47;5030995;28;20046;-79
2024/02/16 03:39:52;;;;;;;6.97;4.60;;;;;;;11.38;82.26;100459.63;5040352;28;20418;-77
2024/02/16 03:42:19;;;;;;;6.25;4.38;;;;;;;11.37;82.30;100463.28;5048346;28;20048;-78
2024/02/16 03:44:47;;;;;;;8.07;4.65;;;;;;;11.40;82.00;100460.34;5048267;28;20105;-79
2024/02/16 03:47:14;;;;;;;7.78;4.65;;;;;;;11.43;81.84;100462.72;5040245;28;20041;-79
2024/02/16 03:49:41;;;;;;;8.77;4.82;;;;;;;11.47;82.05;100461.41;5020771;28;20145;-79
2024/02/16 03:52:10;;;;;;;6.63;4.38;;;;;;;11.48;81.66;100455.16;5030118;28;20124;-79
2024/02/16 03:54:42;;;;;;;8.95;4.57;;;;;;;11.50;81.56;100455.00;5042627;28;20052;-80
2024/02/16 03:57:12;;;;;;;7.97;5.00;;;;;;;11.41;82.36;100456.72;5042792;28;20046;-80
2024/02/16 03:59:39;;;;;;;7.30;5.03;;;;;;;11.42;82.59;100455.72;5043454;28;20081;-79
2024/02/16 04:02:08;;;;;;;9.20;4.95;;;;;;;11.50;82.07;100453.19;5058928;28;20059;-80
2024/02/16 04:04:41;;;;;;;8.50;4.90;;;;;;;11.51;82.17;100454.84;5044779;28;20136;-78
2024/02/16 04:07:13;;;;;;;10.07;5.22;;;;;;;11.58;81.84;100447.19;5052902;28;20045;-79
2024/02/16 04:09:43;;;;;;;10.50;5.10;;;;;;;11.66;81.21;100441.16;5043667;28;20565;-79
2024/02/16 04:12:22;;;;;;;12.38;5.65;;;;;;;11.69;81.26;100446.97;5053256;28;20084;-80
2024/02/16 04:14:52;;;;;;;10.55;5.35;;;;;;;11.78;80.71;100451.41;5054666;28;20107;-79
2024/02/16 04:17:22;;;;;;;12.20;4.90;;;;;;;11.84;80.75;100452.69;5060552;28;20072;-79
2024/02/16 04:19:50;;;;;;;8.70;5.05;;;;;;;11.91;80.41;100450.28;5048495;28;20053;-79
2024/02/16 04:22:17;;;;;;;7.85;5.10;;;;;;;11.87;80.60;100457.69;5049589;28;20140;-79
2024/02/16 04:24:52;;;;;;;6.90;4.60;;;;;;;11.91;80.52;100467.00;5057594;28;20045;-78
2024/02/16 04:27:19;;;;;;;9.55;5.20;;;;;;;11.84;81.51;100471.25;5048667;28;20045;-78
2024/02/16 04:29:52;;;;;;;8.10;4.70;;;;;;;11.80;81.84;100475.97;5051110;28;20049;-78
2024/02/16 04:32:25;;;;;;;6.85;4.70;;;;;;;11.72;82.37;100472.38;5050016;28;20045;-78
2024/02/16 04:34:56;;;;;;;9.35;5.47;;;;;;;11.69;82.66;100484.09;5053717;28;20049;-78
2024/02/16 04:37:23;;;;;;;7.63;5.13;;;;;;;11.67;82.37;100480.75;5039158;28;20132;-79
2024/02/16 04:39:50;;;;;;;7.50;4.88;;;;;;;11.67;82.78;100480.75;5040094;28;20045;-78
2024/02/16 04:42:17;;;;;;;10.20;6.97;;;;;;;11.58;83.50;100485.13;5049032;28;20052;-79
2024/02/16 04:44:44;;;;;;;9.15;4.93;;;;;;;11.53;83.58;100494.47;5045686;28;20045;-78
2024/02/16 04:47:11;;;;;;;9.30;5.93;;;;;;;11.51;84.00;100491.97;5040351;28;20160;-79
2024/02/16 04:49:39;;;;;;;7.80;5.28;;;;;;;11.50;83.95;100500.91;5049700;28;20128;-79
2024/02/16 04:52:08;;;;;;;11.98;5.63;;;;;;;11.45;84.33;100503.13;5059484;28;20048;-79
2024/02/16 04:54:36;;;;;;;8.80;5.70;;;;;;;11.42;84.55;100506.06;5040519;28;20064;-79
2024/02/16 04:57:03;;;;;;;10.95;5.85;;;;;;;11.38;85.07;100502.03;5039852;28;20056;-79
2024/02/16 04:59:29;;;;;;;7.95;5.10;;;;;;;11.38;84.91;100502.88;5033661;28;20049;-79
2024/02/16 05:01:57;;;;;;;8.63;5.53;;;;;;;11.39;84.88;100495.78;5039518;28;20056;-79
2024/02/16 05:04:23;;;;;;;9.15;6.10;;;;;;;11.38;84.86;100497.59;5039622;28;20046;-78
2024/02/16 05:06:52;;;;;;;10.98;5.45;;;;;;;11.40;85.23;100494.78;5039771;28;20420;-79
2024/02/16 05:09:19;;;;;;;7.70;5.82;;;;;;;11.38;84.98;100497.59;5039327;28;20124;-79
2024/02/16 05:11:46;;;;;;;8.20;5.68;;;;;;;11.42;85.30;100495.47;5043565;28;20044;-79
2024/02/16 05:14:16;;;;;;;8.25;5.30;;;;;;;11.40;85.08;100497.44;5046430;28;20049;-79
2024/02/16 05:16:44;;;;;;;8.38;5.38;;;;;;;11.38;85.39;100491.44;5045648;28;20046;-79
2024/02/16 05:19:11;;;;;;;8.90;5.43;;;;;;;11.34;85.70;100498.00;5039432;28;20056;-80
2024/02/16 05:21:38;;;;;;;6.95;5.30;;;;;;;11.38;85.49;100496.72;5037641;28;20112;-80
2024/02/16 05:24:07;;;;;;;8.57;5.65;;;;;;;11.37;85.77;100495.06;5038768;28;20053;-80
2024/02/16 05:26:36;;;;;;;12.65;5.60;;;;;;;11.36;85.47;100490.75;5035025;28;20046;-80
2024/02/16 05:29:03;;;;;;;9.70;5.72;;;;;;;11.36;85.27;100482.81;5056902;28;20143;-78
2024/02/16 05:31:31;;;;;;;11.50;5.97;;;;;;;11.34;85.17;100482.09;5045319;28;20046;-78
2024/02/16 05:33:57;;;;;;;9.63;5.70;;;;;;;11.35;85.72;100481.13;5044540;28;20049;-77
2024/02/16 05:36:27;;;;;;;12.10;6.07;;;;;;;11.28;85.53;100475.56;5040089;28;20049;-78
2024/02/16 05:38:55;;;;;;;7.80;5.30;;;;;;;11.25;85.67;100475.88;5029898;28;20046;-78
2024/02/16 05:41:23;;;;;;;10.40;5.57;;;;;;;11.21;85.67;100473.63;5031759;28;20053;-78
2024/02/16 05:43:50;;;;;;;9.57;5.88;;;;;;;11.24;85.67;100471.53;5047648;28;20534;-79
2024/02/16 05:46:17;;;;;;;9.55;5.43;;;;;;;11.24;85.19;100470.69;5041523;28;20105;-79
2024/02/16 05:48:46;;;;;;;9.85;5.10;;;;;;;11.19;85.71;100470.28;5038443;28;20058;-78
2024/02/16 05:51:14;;;;;;;9.57;5.43;;;;;;;11.20;85.05;100467.47;5046635;28;20060;-77
2024/02/16 05:53:41;;;;;;;9.65;5.82;;;;;;;11.17;85.11;100483.69;5051097;28;20061;-77
2024/02/16 05:56:10;;;;;;;9.50;6.13;;;;;;;11.23;84.94;100471.69;5054281;28;20041;-80
2024/02/16 05:58:37;;;;;;;10.95;5.78;;;;;;;11.18;85.33;100481.88;5037995;28;20523;-77
2024/02/16 06:01:05;;;;;;;8.02;6.03;;;;;;;11.18;84.92;100479.22;5037392;28;20053;-79
2024/02/16 06:03:33;;;;;;;10.90;8.85;;;;;;;11.17;85.34;100483.69;5038137;28;20152;-78
2024/02/16 06:06:00;;;;;;;10.95;9.25;;;;;;;11.20;85.05;100483.38;5037421;28;20045;-78
2024/02/16 06:08:29;;;;;;;8.88;5.32;;;;;;;11.32;84.02;100486.72;5037608;28;20049;-78
2024/02/16 06:10:56;;;;;;;9.13;5.50;;;;;;;11.38;83.31;100475.53;5037624;28;20128;-78
2024/02/16 06:13:22;;;;;;;9.15;5.53;;;;;;;11.39;83.32;100477.22;5037083;28;20057;-77
2024/02/16 06:15:50;;;;;;;10.23;5.45;;;;;;;11.51;82.67;100485.81;5035870;28;20116;-78
2024/02/16 06:20:45;;;;;;;12.82;5.57;;;;;;;11.68;81.51;100481.59;5027545;28;20060;-78
2024/02/16 06:23:21;;;;;;;6.70;5.22;;;;;;;11.65;81.59;100480.06;5024436;28;20411;-78
2024/02/16 06:25:51;;;;;;;9.05;5.60;;;;;;;11.74;80.57;100483.66;5032497;28;20400;-78
2024/02/16 06:28:18;;;;;;;8.65;5.55;;;;;;;11.70;81.11;100474.31;5036714;28;20045;-77
2024/02/16 06:30:45;;;;;;;8.40;5.35;;;;;;;11.78;80.27;100480.56;5041218;28;20100;-79
2024/02/16 06:33:15;;;;;;;8.27;5.45;;;;;;;11.83;79.97;100477.50;5041420;28;20050;-79
2024/02/16 06:35:46;;;;;;;8.35;5.45;;;;;;;11.81;79.88;100477.63;5025094;28;20067;-79
2024/02/16 06:38:16;;;;;;;7.72;5.30;;;;;;;11.80;79.75;100468.00;5043642;28;20053;-80
2024/02/16 06:40:43;;;;;;;11.75;5.03;;;;;;;11.88;79.59;100477.94;5044460;28;20061;-78
2024/02/16 06:43:12;;;;;;;7.60;5.00;;;;;;;11.86;79.81;100482.53;5047756;28;20053;-79
2024/02/16 06:45:39;;;;;;;9.60;4.97;;;;;;;11.90;78.98;100486.56;5047276;28;20102;-79
2024/02/16 06:48:07;;;;;;;10.43;5.22;;;;;;;11.88;79.39;100504.44;5045600;28;20053;-80
2024/02/16 06:50:35;;;;;;;7.75;5.28;;;;;;;11.85;79.80;100518.00;5048557;28;20069;-80
2024/02/16 06:53:02;;;;;;;8.13;4.97;;;;;;;11.85;79.92;100521.47;5045352;28;20053;-80
2024/02/16 06:55:32;;;;;;;8.50;5.18;;;;;;;11.82;79.76;100531.50;5041509;28;20045;-80
2024/02/16 06:57:59;;;;;;;6.85;4.72;;;;;;;11.83;79.89;100528.75;5043435;28;20057;-80
2024/02/16 07:00:26;;;;;;;10.27;4.75;;;;;;;11.80;80.07;100529.00;5043519;28;20060;-80
2024/02/16 07:02:59;;;;;;;9.98;5.30;;;;;;;11.84;79.80;100540.19;5045030;28;20248;-80
2024/02/16 07:05:27;;;;;;;8.25;5.20;;;;;;;11.79;80.20;100553.03;5044408;28;20064;-81
2024/02/16 07:07:59;;;;;;;7.03;4.78;;;;;;;11.86;79.53;100554.13;5041992;28;20054;-80
2024/02/16 07:10:25;;;;;;;8.15;4.82;;;;;;;11.81;79.92;100557.19;5041018;28;20045;-79
2024/02/16 07:12:52;;;;;;;8.98;4.90;;;;;;;11.84;79.60;100558.75;5034679;28;20132;-80
2024/02/16 07:15:26;;;;;;;8.70;5.32;;;;;;;11.83;80.02;100557.06;5035482;28;20125;-81
2024/02/16 07:17:58;;;;;;;27.48;14.40;;;;;;;11.86;79.30;100554.13;5044059;28;20046;-80
2024/02/16 07:20:25;;;;;;;12.05;5.85;;;;;;;11.95;79.08;100568.34;5043246;28;20589;-80
2024/02/16 07:22:56;;;;;;;9.85;6.25;;;;;;;11.98;78.88;100552.97;5040527;28;20049;-80
2024/02/16 07:25:24;;;;;;;10.40;6.47;;;;;;;12.02;78.27;100562.31;5038866;28;20085;-79
2024/02/16 07:27:52;;;;;;;9.98;6.50;;;;;;;12.05;78.14;100561.19;5038068;28;20108;-79
2024/02/16 07:30:20;;;;;;;10.65;8.25;;;;;;;12.14;78.12;100573.56;5043129;28;20148;-80
2024/02/16 07:32:50;;;;;;;10.52;6.32;;;;;;;12.16;78.08;100578.75;5044004;28;20052;-80
2024/02/16 07:35:21;;;;;;;11.07;5.75;;;;;;;12.19;77.63;100578.44;5039414;28;20084;-79
2024/02/16 07:37:52;;;;;;;9.18;5.20;;;;;;;12.24;77.72;100589.47;5034883;28;20077;-79
2024/02/16 07:40:22;;;;;;;8.68;5.00;;;;;;;12.26;77.51;100587.50;5035854;28;20054;-79
2024/02/16 07:42:54;;;;;;;10.07;5.20;;;;;;;12.23;77.53;100598.38;5043463;28;20116;-79
2024/02/16 07:45:22;;;;;;;10.18;5.10;;;;;;;12.23;77.65;100601.88;5040620;28;20060;-79
2024/02/16 07:47:49;;;;;;;8.00;5.10;;;;;;;12.24;78.00;100597.44;5044320;28;20104;-81
2024/02/16 07:55:51;;;;;;;8.48;5.10;;;;;;;12.30;77.30;100610.94;5031582;28;20451;-79
2024/02/16 07:58:41;;;;;;;7.18;4.80;;;;;;;12.33;77.08;100615.13;5046435;28;20045;-80
2024/02/16 08:01:20;;;;;;;9.63;4.95;;;;;;;12.33;76.91;100612.47;5040166;28;20108;-79
2024/02/16 08:04:05;;;;;;;8.70;5.18;;;;;;;12.42;76.37;100626.69;5040500;28;20049;-79
2024/02/16 08:06:33;;;;;;;8.63;4.75;;;;;;;12.39;76.94;100625.16;5038919;28;20053;-79
2024/02/16 08:09:01;;;;;;;8.48;4.95;;;;;;;12.42;76.63;100634.66;5039124;28;20053;-79
2024/02/16 08:11:33;;;;;;;8.50;4.70;;;;;;;12.48;76.40;100629.56;5040550;28;20053;-79
2024/02/16 08:14:03;;;;;;;7.63;4.80;;;;;;;12.48;76.94;100632.22;5041819;28;20061;-78
2024/02/16 08:16:30;;;;;;;7.88;4.82;;;;;;;12.55;77.09;100630.69;5018254;28;20136;-78
2024/02/16 08:18:57;;;;;;;8.70;5.50;;;;;;;12.56;77.24;100636.81;5038183;28;20059;-78
2024/02/16 08:21:25;;;;;;;10.70;5.30;;;;;;;12.62;76.47;100636.22;5037669;28;20178;-78
2024/02/16 08:23:52;;;;;;;8.75;5.03;;;;;;;12.64;76.92;100635.09;5036633;28;20046;-79
2024/02/16 08:26:22;;;;;;;7.13;5.07;;;;;;;12.69;77.05;100631.16;5031254;28;20534;-79
2024/02/16 08:28:48;;;;;;;8.85;6.05;;;;;;;12.70;77.63;100638.16;5034386;28;20077;-79
2024/02/16 08:31:18;;;;;;;10.30;6.63;;;;;;;12.71;77.57;100645.13;5029905;28;20049;-79
2024/02/16 08:33:46;;;;;;;8.65;6.57;;;;;;;12.79;76.90;100651.38;5026571;28;20042;-79
2024/02/16 08:36:13;;;;;;;8.40;5.13;;;;;;;12.84;76.03;100654.41;5036134;28;20046;-79
2024/02/16 08:38:42;;;;;;;8.18;5.20;;;;;;;12.93;75.92;100650.03;5038048;28;20073;-78
2024/02/16 08:41:09;;;;;;;9.57;5.00;;;;;;;12.96;75.25;100649.75;5031334;28;20059;-79
2024/02/16 08:43:36;;;;;;;9.65;5.13;;;;;;;12.99;75.57;100651.25;5035642;28;20084;-79
2024/02/16 08:46:04;;;;;;;12.35;8.95;;;;;;;12.99;75.50;100652.13;5036984;28;20049;-79
2024/02/16 08:48:36;;;;;;;7.03;5.20;;;;;;;13.09;75.00;100658.19;5036408;28;20463;-79
2024/02/16 08:51:03;;;;;;;8.60;5.40;;;;;;;13.09;74.78;100663.50;5035136;28;20533;-79
2024/02/16 08:53:30;;;;;;;11.32;9.63;;;;;;;13.24;74.25;100663.03;5036981;28;20121;-78
2024/02/16 08:55:56;;;;;;;8.80;5.30;;;;;;;13.21;74.20;100668.59;5035361;28;20107;-78
2024/02/16 08:58:23;;;;;;;9.30;5.63;;;;;;;13.19;73.88;100660.78;5033727;28;20045;-79
2024/02/16 09:00:51;;;;;;;7.15;5.15;;;;;;;13.25;74.04;100665.50;5020538;28;20081;-80
2024/02/16 09:03:18;;;;;;;11.20;5.43;;;;;;;13.22;73.87;100662.31;5029972;28;20049;-80
2024/02/16 09:05:47;;;;;;;8.52;5.32;;;;;;;13.28;73.73;100669.72;5031319;28;20057;-79
2024/02/16 09:08:14;;;;;;;6.55;4.88;;;;;;;13.29;74.08;100671.38;5033649;28;20121;-79
2024/02/16 09:10:41;;;;;;;11.18;5.45;;;;;;;13.32;73.93;100679.06;5034268;28;20443;-78
2024/02/16 09:13:09;;;;;;;8.57;5.63;;;;;;;13.33;74.64;100672.75;5034732;28;20049;-79
2024/02/16 09:15:36;;;;;;;9.05;5.78;;;;;;;13.37;73.52;100679.44;5040453;28;20053;-80
2024/02/16 09:18:06;;;;;;;8.65;5.57;;;;;;;13.33;74.14;100678.06;5031069;28;20054;-77
2024/02/16 09:20:32;;;;;;;8.95;5.20;;;;;;;13.39;74.10;100688.06;5032160;28;20049;-79
2024/02/16 09:23:33;;;;;;;7.50;5.55;;;;;;;13.31;74.30;100688.84;5033803;28;20054;-80
2024/02/16 09:26:00;;;;;;;11.65;5.65;;;;;;;13.28;75.02;100683.81;5034386;28;20053;-80
2024/02/16 09:28:29;;;;;;;11.98;6.10;;;;;;;13.33;75.02;100694.00;5023608;28;20078;-78
2024/02/16 09:30:56;;;;;;;9.38;5.93;;;;;;;13.38;74.36;100700.53;5024756;28;20049;-79
2024/02/16 09:33:24;;;;;;;7.07;5.60;;;;;;;13.37;74.48;100696.22;5029739;28;20139;-78
2024/02/16 09:35:50;;;;;;;13.77;6.53;;;;;;;13.39;74.99;100704.88;5030623;28;20076;-78
2024/02/16 09:38:18;;;;;;;10.85;5.68;;;;;;;13.39;74.34;100712.00;5037450;28;20076;-79
2024/02/16 09:40:45;;;;;;;11.23;5.78;;;;;;;13.46;74.86;100710.44;5035664;28;20128;-79
2024/02/16 09:43:34;;;;;;;20.60;17.17;;;;;;;13.54;75.79;100728.28;5027681;28;20085;-79
2024/02/16 09:46:01;;;;;;;10.93;6.75;;;;;;;13.65;74.87;100720.91;5033841;28;20111;-79
2024/02/16 09:48:35;;;;;;;9.98;5.82;;;;;;;13.64;73.99;100724.56;5033234;28;20086;-78
2024/02/16 09:51:03;;;;;;;9.98;5.78;;;;;;;13.75;73.75;100725.31;5025726;28;20093;-79
2024/02/16 09:53:31;;;;;;;8.02;6.00;;;;;;;13.78;74.03;100733.84;5044009;28;20053;-78
2024/02/16 09:55:58;;;;;;;10.65;8.38;;;;;;;13.73;74.70;100735.28;5040745;28;20057;-79
2024/02/16 09:58:24;;;;;;;12.55;6.90;;;;;;;13.71;74.41;100729.28;5035527;28;20048;-80
2024/02/16 10:00:52;;;;;;;13.25;7.13;;;;;;;13.50;76.02;100740.22;5033342;28;20065;-79
2024/02/16 10:03:25;;;;;;;15.63;6.70;;;;;;;13.45;76.73;100739.84;5031524;28;20053;-78
2024/02/16 10:05:52;;;;;;;11.57;6.88;;;;;;;13.47;76.85;100732.53;5028389;28;20054;-78
2024/02/16 10:08:19;;;;;;;12.77;7.50;;;;;;;13.49;77.98;100746.53;5028890;28;20447;-80
2024/02/16 10:10:49;;;;;;;11.65;6.00;;;;;;;13.55;77.22;100751.22;5035325;28;20077;-79
2024/02/16 10:13:16;;;;;;;9.80;5.53;;;;;;;13.61;75.97;100748.78;5032389;28;20171;-79
2024/02/16 10:15:43;;;;;;;8.38;5.50;;;;;;;13.60;75.55;100741.81;5020449;28;20050;-79
2024/02/16 10:18:09;;;;;;;8.35;5.90;;;;;;;13.58;75.82;100750.94;5033381;28;20060;-78
2024/02/16 10:20:39;;;;;;;11.13;5.85;;;;;;;13.71;77.10;100761.22;5034452;28;20096;-79
2024/02/16 10:23:09;;;;;;;9.90;5.22;;;;;;;13.76;75.89;100772.22;5029439;28;20420;-79
2024/02/16 10:25:37;;;;;;;12.93;7.10;;;;;;;13.83;75.15;100782.09;5035996;28;20057;-79
2024/02/16 10:28:07;;;;;;;8.23;5.22;;;;;;;13.99;74.53;100786.75;5038487;28;20411;-78
2024/02/16 10:30:37;;;;;;;11.98;5.70;;;;;;;13.93;74.47;100787.38;5038669;28;20131;-78
2024/02/16 10:33:07;;;;;;;6.50;4.90;;;;;;;13.89;75.05;100791.31;5038154;28;20104;-80
2024/02/16 10:35:35;;;;;;;9.70;5.53;;;;;;;13.85;75.60;100795.25;5038915;28;20128;-80
2024/02/16 10:38:04;;;;;;;9.07;5.75;;;;;;;13.83;74.98;100791.91;5038873;28;20098;-80
2024/02/16 10:40:33;;;;;;;11.02;5.70;;;;;;;13.89;74.41;100801.94;5041454;28;20053;-79
2024/02/16 10:43:05;;;;;;;9.85;6.07;;;;;;;13.83;75.11;100797.22;5045135;28;20053;-79
2024/02/16 10:45:34;;;;;;;13.93;5.68;;;;;;;13.91;74.73;100797.31;5044455;28;20064;-80
2024/02/16 10:48:01;;;;;;;13.18;5.97;;;;;;;13.88;74.84;100800.25;5042824;28;20045;-80
2024/02/16 10:50:28;;;;;;;8.45;5.38;;;;;;;13.96;74.64;100797.69;5044320;28;20049;-79
2024/02/16 10:52:57;;;;;;;9.15;5.40;;;;;;;14.11;74.32;100790.84;5043148;28;20084;-80
2024/02/16 10:55:26;;;;;;;10.98;5.85;;;;;;;14.18;74.07;100798.22;5034340;28;20078;-80
2024/02/16 10:57:55;;;;;;;10.40;5.78;;;;;;;14.14;74.57;100801.16;5042979;28;20095;-80
2024/02/16 11:00:22;;;;;;;10.25;5.75;;;;;;;14.14;74.30;100801.16;5042165;28;20056;-80
2024/02/16 11:02:56;;;;;;;10.93;6.22;;;;;;;13.98;74.91;100806.38;5042667;28;20090;-80
2024/02/16 11:05:36;;;;;;;12.95;6.72;;;;;;;13.81;75.92;100799.22;5042351;28;20053;-80
2024/02/16 11:08:04;;;;;;;10.63;5.57;;;;;;;13.94;76.35;100807.66;5042489;28;20543;-80
2024/02/16 11:10:31;;;;;;;11.10;6.00;;;;;;;13.93;75.37;100803.31;5034607;28;20061;-81
2024/02/16 11:13:05;;;;;;;9.52;6.05;;;;;;;13.90;75.80;100811.59;5044147;28;20140;-80
2024/02/16 11:15:33;;;;;;;9.73;6.13;;;;;;;13.91;75.88;100816.75;5042893;28;20117;-80
2024/02/16 11:18:03;;;;;;;14.90;6.15;;;;;;;13.95;76.07;100806.66;5043300;28;20055;-80
2024/02/16 11:20:37;;;;;;;10.35;6.18;;;;;;;13.91;76.25;100814.09;5041876;28;20076;-80
2024/02/16 11:23:09;;;;;;;16.30;5.95;;;;;;;13.87;78.72;100817.22;5041903;28;20105;-79
2024/02/16 11:25:37;;;;;;;11.63;5.95;;;;;;;13.87;79.72;100809.22;5041103;28;20077;-79
2024/02/16 11:28:05;;;;;;;11.07;5.75;;;;;;;13.86;80.24;100813.72;5031658;28;20065;-79
2024/02/16 11:30:34;;;;;;;12.35;6.80;;;;;;;13.89;80.68;100817.91;5031704;28;20141;-78
2024/02/16 11:33:02;;;;;;;9.95;6.25;;;;;;;13.94;80.38;100815.63;5039053;28;20408;-78
2024/02/16 11:35:29;;;;;;;11.27;6.72;;;;;;;13.95;80.51;100817.31;5032891;28;20055;-79
2024/02/16 11:37:58;;;;;;;8.20;6.18;;;;;;;13.99;79.36;100818.69;5043060;28;20069;-78
2024/02/16 11:40:24;;;;;;;13.18;6.40;;;;;;;13.91;79.10;100821.25;5041427;28;20072;-79
2024/02/16 11:42:58;;;;;;;10.80;6.45;;;;;;;13.90;79.84;100831.06;5040942;28;20100;-78